Terminal Aerodrome Forecast
Issued by NWS

Home | Current Version | Previous Version | Text Only | Print | Product List | Glossary On
Versions: 1 2 3 4 5 6 7 8 9 10 11 12 13 14 15
674
FTUS44 KMAF 290823 AAA
TAFPEQ
TAF AMD
KPEQ 290823Z 2908/3006 02010KT P6SM SCT060 BKN150
      TEMPO 2909/2913 VRB15G25KT 3SM TSRA BKN015 BKN040CB
     FM291300 05006KT P6SM SCT015 BKN100
      TEMPO 2913/2915 BKN015=

USA.gov is the U.S. government's official web portal to all federal, state and local government web resources and services.